Time;durP1;ratioP1;P1;durP2;ratioP2;P2;SDS_P1;SDS_P2;PMS_P1;PMS_P2;Temp;Humidity;BMP_temperature;BMP_pressure;BME280_temperature;BME280_humidity;BME280_pressure;Samples;Min_cycle;Max_cycle;Signal;HPM_P1;HPM_P2
2023/06/12 00:00:34;;;;;;;1.08;0.98;;;;;;;-145.06;100.00;60892.56;5897897;23;20006;-93
2023/06/12 00:03:21;;;;;;;1.38;1.20;;;;;;;-145.06;100.00;60892.56;5898239;23;20010;-93
2023/06/12 00:06:17;;;;;;;1.38;1.20;;;;;;;-145.06;100.00;60892.56;5918169;23;20033;-95
2023/06/12 00:09:17;;;;;;;1.65;1.30;;;;;;;-145.06;100.00;60892.56;5897786;23;20009;-94
2023/06/12 00:12:14;;;;;;;1.17;1.00;;;;;;;-145.06;100.00;60892.56;5879648;23;20030;-93
2023/06/12 00:15:36;;;;;;;1.60;1.20;;;;;;;-145.06;100.00;60892.56;5897305;23;20006;-94
2023/06/12 00:18:43;;;;;;;2.03;1.13;;;;;;;-145.06;100.00;60892.56;5897334;23;20053;-95
2023/06/12 00:21:32;;;;;;;2.08;1.23;;;;;;;20.95;100.00;60892.56;5896535;23;20061;-94
2023/06/12 00:24:38;;;;;;;1.10;1.00;;;;;;;-145.06;100.00;60892.56;5897327;23;20006;-93
2023/06/12 00:27:39;;;;;;;2.08;1.17;;;;;;;20.79;100.00;60892.56;5918901;23;20081;-93
2023/06/12 00:30:31;;;;;;;;;;;;;;;;;;;;;
2023/06/12 00:33:47;;;;;;;;;;;;;;;;;;;;;
2023/06/12 00:36:56;;;;;;;1.42;1.17;;;;;;;20.56;100.00;60892.56;5899309;23;20007;-93
2023/06/12 00:39:49;;;;;;;;;;;;;;;;;;;;;
2023/06/12 00:47:46;;;;;;;1.58;1.30;;;;;;;-145.06;100.00;60892.56;5918419;23;20073;-92
2023/06/12 00:50:37;;;;;;;1.55;1.20;;;;;;;-145.06;100.00;60892.56;5916775;23;20002;-92
2023/06/12 00:53:21;;;;;;;1.45;1.30;;;;;;;-145.06;100.00;60892.56;5917046;23;20006;-92
2023/06/12 00:56:04;;;;;;;1.60;1.23;;;;;;;-145.06;100.00;60892.56;5917456;23;20014;-91
2023/06/12 00:59:09;;;;;;;1.42;1.25;;;;;;;-145.06;100.00;60892.56;5916724;23;20005;-94
2023/06/12 01:02:09;;;;;;;2.30;1.30;;;;;;;-145.06;100.00;60892.56;5916931;23;20001;-92
2023/06/12 01:05:20;;;;;;;1.25;1.10;;;;;;;-145.06;100.00;60892.56;5916900;23;20009;-92
2023/06/12 01:08:26;;;;;;;2.00;1.27;;;;;;;-145.06;100.00;60892.56;5916756;23;20001;-92
2023/06/12 01:11:32;;;;;;;1.00;0.90;;;;;;;-145.06;100.00;60892.56;5916674;23;20005;-93
2023/06/12 01:14:56;;;;;;;;;;;;;;;;;;;;;
2023/06/12 01:17:59;;;;;;;1.30;1.05;;;;;;;-145.06;100.00;60892.56;5928422;23;20006;-92
2023/06/12 01:20:45;;;;;;;1.55;1.30;;;;;;;-145.06;100.00;60892.56;5917260;23;20309;-93
2023/06/12 01:24:22;;;;;;;;;;;;;;;;;;;;;
2023/06/12 01:27:39;;;;;;;1.60;1.05;;;;;;;-145.06;100.00;60892.56;5927871;23;20038;-93
2023/06/12 01:31:35;;;;;;;2.03;1.25;;;;;;;-145.06;100.00;60892.56;5861848;23;20006;-92
2023/06/12 01:34:47;;;;;;;1.40;1.10;;;;;;;-145.06;100.00;60892.56;5784586;23;20008;-93
2023/06/12 01:54:12;;;;;;;1.65;1.30;;;;;;;-145.06;100.00;60892.56;5931363;23;20025;-92
2023/06/12 01:57:05;;;;;;;;;;;;;;;;;;;;;
2023/06/12 02:03:33;;;;;;;;;;;;;;;;;;;;;
2023/06/12 02:10:42;;;;;;;;;;;;;;;;;;;;;
2023/06/12 02:13:59;;;;;;;1.50;1.00;;;;;;;-145.06;100.00;60892.56;5955686;23;20452;-92
2023/06/12 02:17:44;;;;;;;;;;;;;;;;;;;;;
2023/06/12 02:25:23;;;;;;;;;;;;;;;;;;;;;
2023/06/12 02:29:10;;;;;;;;;;;;;;;;;;;;;
2023/06/12 02:32:44;;;;;;;;;;;;;;;;;;;;;
2023/06/12 02:53:35;;;;;;;;;;;;;;;;;;;;;
2023/06/12 02:56:46;;;;;;;;;;;;;;;;;;;;;
2023/06/12 03:15:20;;;;;;;1.30;1.02;;;;;;;-145.06;100.00;60892.56;5900122;23;20011;-91
2023/06/12 03:18:26;;;;;;;1.45;1.02;;;;;;;-145.06;100.00;60892.56;5890130;23;20007;-92
2023/06/12 03:25:28;;;;;;;;;;;;;;;;;;;;;
2023/06/12 03:32:47;;;;;;;;;;;;;;;;;;;;;
2023/06/12 03:51:58;;;;;;;1.25;1.00;;;;;;;-145.06;100.00;60892.56;5777299;24;20016;-92
2023/06/12 03:55:37;;;;;;;;;;;;;;;;;;;;;
2023/06/12 04:47:20;;;;;;;2.22;1.45;;;;;;;-145.06;100.00;60892.56;5891037;23;20046;-90
2023/06/12 05:57:24;;;;;;;;;;;;;;;;;;;;;
2023/06/12 06:00:20;;;;;;;;;;;;;;;;;;;;;
2023/06/12 06:03:04;;;;;;;1.55;1.05;;;;;;;-145.06;100.00;60892.56;5926756;23;20009;-93
2023/06/12 06:05:46;;;;;;;1.25;1.00;;;;;;;18.48;100.00;60892.56;5925769;23;20018;-91
2023/06/12 06:08:35;;;;;;;1.52;1.10;;;;;;;-145.06;100.00;60892.56;5895446;23;20006;-92
2023/06/12 06:11:20;;;;;;;1.55;1.13;;;;;;;-145.06;100.00;60892.56;5895568;23;20013;-92
2023/06/12 06:14:21;;;;;;;1.40;1.10;;;;;;;-145.06;100.00;60892.56;5895835;23;20005;-91
2023/06/12 06:17:42;;;;;;;1.75;1.13;;;;;;;-145.06;100.00;60892.56;5896393;23;20002;-90
2023/06/12 06:20:24;;;;;;;1.30;0.98;;;;;;;-145.06;100.00;60892.56;5894732;23;20281;-92
2023/06/12 06:23:31;;;;;;;1.35;1.20;;;;;;;19.78;100.00;60892.56;5896016;23;20005;-90
2023/06/12 06:26:13;;;;;;;1.05;0.95;;;;;;;-145.06;100.00;60892.56;5894003;23;20081;-92
2023/06/12 06:29:39;;;;;;;1.08;0.98;;;;;;;-145.06;100.00;60892.56;5895746;23;20014;-92
2023/06/12 06:32:28;;;;;;;1.27;0.93;;;;;;;-145.06;100.00;60892.56;5916622;23;20018;-92
2023/06/12 06:35:40;;;;;;;1.90;1.17;;;;;;;-145.06;100.00;60892.56;5895066;23;20010;-93
2023/06/12 06:38:38;;;;;;;1.70;1.27;;;;;;;-145.06;100.00;60892.56;5895783;23;20006;-92
2023/06/12 06:41:20;;;;;;;1.30;1.00;;;;;;;-145.06;100.00;60892.56;5895917;23;20009;-92
2023/06/12 06:44:00;;;;;;;0.88;0.80;;;;;;;-145.06;100.00;60892.56;5896263;23;20010;-91
2023/06/12 06:46:47;;;;;;;1.02;0.93;;;;;;;-145.06;100.00;60892.56;5896444;23;20006;-92
2023/06/12 06:49:35;;;;;;;1.30;1.10;;;;;;;-145.06;100.00;60892.56;5894874;23;20002;-93
2023/06/12 06:52:22;;;;;;;1.30;1.20;;;;;;;-145.06;100.00;60892.56;5894868;23;20042;-92
2023/06/12 06:55:01;;;;;;;1.35;1.13;;;;;;;21.08;100.00;60892.56;5894629;23;20014;-92
2023/06/12 06:57:42;;;;;;;1.33;1.10;;;;;;;-145.06;100.00;60892.56;5894771;23;20006;-91
2023/06/12 07:01:00;;;;;;;1.50;1.13;;;;;;;-145.06;100.00;60892.56;5895371;23;20310;-90
2023/06/12 07:03:45;;;;;;;1.13;1.00;;;;;;;-145.06;100.00;60892.56;5897410;23;20006;-91
2023/06/12 07:06:34;;;;;;;1.15;0.93;;;;;;;-145.06;100.00;60892.56;5898074;23;20312;-92
2023/06/12 07:09:32;;;;;;;;;;;;;;;-145.06;100.00;60892.56;5898348;23;20033;-92
2023/06/12 07:12:53;;;;;;;;;;;;;;;;;;;;;
2023/06/12 07:18:49;;;;;;;1.38;0.90;;;;;;;20.76;100.00;60892.56;5919469;23;20006;-92
2023/06/12 07:21:49;;;;;;;1.40;1.20;;;;;;;20.88;100.00;60892.56;5899619;23;20045;-93
2023/06/12 07:28:04;;;;;;;1.10;1.00;;;;;;;-145.06;100.00;60892.56;5952882;23;20009;-93
2023/06/12 07:30:54;;;;;;;1.23;1.13;;;;;;;-145.06;100.00;60892.56;5832044;23;20011;-92
2023/06/12 07:33:39;;;;;;;1.90;1.58;;;;;;;-145.06;100.00;60892.56;5896676;23;20005;-92
2023/06/12 07:36:36;;;;;;;;;;;;;;;;;;;;;
2023/06/12 07:39:18;;;;;;;1.40;1.10;;;;;;;21.79;100.00;60892.56;5927903;23;20334;-90
2023/06/12 07:42:18;;;;;;;1.70;1.13;;;;;;;21.93;100.00;60892.56;5918008;23;20009;-91
2023/06/12 07:45:02;;;;;;;1.15;1.00;;;;;;;-145.06;100.00;60892.56;5917332;23;20006;-91
2023/06/12 07:47:59;;;;;;;;;;;;;;;;;;;;;
2023/06/12 07:50:44;;;;;;;1.30;1.20;;;;;;;-145.06;100.00;60892.56;5928822;23;20010;-92
2023/06/12 07:53:28;;;;;;;3.80;1.10;;;;;;;-145.06;100.00;60892.56;5870451;23;20006;-92
2023/06/12 07:56:18;;;;;;;1.42;1.13;;;;;;;-145.06;100.00;60892.56;5869444;23;20007;-92
2023/06/12 07:59:12;;;;;;;2.30;1.08;;;;;;;-145.06;100.00;60892.56;5868754;23;20030;-93
2023/06/12 08:01:56;;;;;;;1.20;1.02;;;;;;;-145.06;100.00;60892.56;5889891;23;20003;-92
2023/06/12 08:05:03;;;;;;;1.50;1.00;;;;;;;-145.06;100.00;60892.56;5888519;23;20386;-92
2023/06/12 08:07:57;;;;;;;0.98;0.90;;;;;;;-145.06;100.00;60892.56;5867688;23;20025;-92
2023/06/12 08:11:05;;;;;;;1.30;1.10;;;;;;;-145.06;100.00;60892.56;5868911;23;20303;-92
2023/06/12 08:14:02;;;;;;;2.85;1.05;;;;;;;-145.06;100.00;60892.56;5868187;23;20010;-93
2023/06/12 08:16:45;;;;;;;1.73;1.00;;;;;;;-145.06;100.00;60892.56;5868729;23;20030;-93
2023/06/12 08:19:38;;;;;;;1.40;1.02;;;;;;;-145.06;100.00;60892.56;5868323;23;20085;-94
2023/06/12 08:22:23;;;;;;;1.13;1.02;;;;;;;-145.06;100.00;60892.56;5868021;23;20030;-93
2023/06/12 08:25:11;;;;;;;1.48;1.20;;;;;;;-145.06;100.00;60892.56;5888262;23;20014;-93
2023/06/12 08:28:40;;;;;;;;;;;;;;;;;;;;;
2023/06/12 08:32:30;;;;;;;;;;;;;;;;;;;;;
2023/06/12 08:35:20;;;;;;;1.55;1.15;;;;;;;-145.06;100.00;60892.56;5824956;23;20007;-92
2023/06/12 08:38:41;;;;;;;;;;;;;;;;;;;;;
2023/06/12 08:41:35;;;;;;;1.73;1.38;;;;;;;31.47;100.00;60892.56;5884658;23;20017;-92
2023/06/12 08:44:41;;;;;;;1.00;0.90;;;;;;;-145.06;100.00;60892.56;5868535;23;20307;-93
2023/06/12 08:47:35;;;;;;;1.20;1.10;;;;;;;-145.06;100.00;60892.56;5888315;23;19998;-93
2023/06/12 08:58:21;;;;;;;1.20;1.00;;;;;;;-145.06;100.00;60892.56;5898378;23;20011;-92
2023/06/12 09:01:12;;;;;;;1.63;1.27;;;;;;;-145.06;100.00;60892.56;5888744;23;20306;-92
2023/06/12 09:04:19;;;;;;;1.17;0.90;;;;;;;-145.06;100.00;60892.56;5867707;23;20030;-93
2023/06/12 09:11:11;;;;;;;;;;;;;;;;;;;;;
2023/06/12 09:14:08;;;;;;;1.55;1.02;;;;;;;-145.06;100.00;60892.56;5898611;23;20322;-94
2023/06/12 09:17:12;;;;;;;1.15;1.00;;;;;;;-145.06;100.00;60892.56;5888480;23;20010;-94
2023/06/12 09:24:15;;;;;;;1.38;1.00;;;;;;;-145.06;100.00;60892.56;5879308;23;20018;-92
2023/06/12 09:27:33;;;;;;;1.55;1.02;;;;;;;-145.06;100.00;60892.56;5888647;23;20374;-93
2023/06/12 09:31:04;;;;;;;;;;;;;;;;;;;;;
2023/06/12 09:37:38;;;;;;;1.13;1.02;;;;;;;-145.06;100.00;60892.56;5785738;24;20016;-93
2023/06/12 09:40:30;;;;;;;1.15;0.90;;;;;;;-145.06;100.00;60892.56;5867522;23;20425;-93
2023/06/12 09:51:34;;;;;;;;;;;;;;;;;;;;;
2023/06/12 09:54:22;;;;;;;1.13;0.93;;;;;;;-145.06;100.00;60892.56;5766219;23;20007;-94
2023/06/12 10:04:51;;;;;;;0.80;0.77;;;;;;;-145.06;100.00;60892.56;5785489;24;20467;-92
2023/06/12 10:08:23;;;;;;;1.92;1.10;;;;;;;-145.06;100.00;60892.56;5755252;24;20004;-94
2023/06/12 10:11:28;;;;;;;;;;;;;;;;;;;;;
2023/06/12 10:14:14;;;;;;;1.40;1.10;;;;;;;-145.06;100.00;60892.56;5898110;23;20399;-93
2023/06/12 10:17:10;;;;;;;0.80;0.70;;;;;;;28.45;100.00;60892.56;5867132;23;20006;-93
2023/06/12 10:19:57;;;;;;;1.10;1.00;;;;;;;-145.06;100.00;60892.56;5866975;23;20014;-93
2023/06/12 10:22:58;;;;;;;1.13;0.98;;;;;;;-145.06;100.00;60892.56;5867142;23;20434;-92
2023/06/12 10:26:01;;;;;;;1.05;0.88;;;;;;;28.78;100.00;60892.56;5868095;23;20014;-93
2023/06/12 10:28:50;;;;;;;1.00;0.88;;;;;;;-145.06;100.00;60892.56;5867438;23;20011;-93
2023/06/12 10:32:01;;;;;;;;;;;;;;;;;;;;;
2023/06/12 10:35:01;;;;;;;;;;;;;;;;;;;;;
2023/06/12 10:37:47;;;;;;;1.00;0.80;;;;;;;-145.06;100.00;60892.56;5904796;23;20002;-91
2023/06/12 10:43:20;;;;;;;0.75;0.70;;;;;;;-145.06;100.00;60892.56;5890497;23;20030;-92
2023/06/12 10:46:13;;;;;;;0.80;0.80;;;;;;;-145.06;100.00;60892.56;5897307;23;20440;-90
2023/06/12 10:48:52;;;;;;;0.80;0.60;;;;;;;-145.06;100.00;60892.56;5896767;23;20014;-92
2023/06/12 10:51:53;;;;;;;0.95;0.85;;;;;;;-145.06;100.00;60892.56;5927445;23;20006;-92
2023/06/12 10:54:56;;;;;;;1.20;0.90;;;;;;;-145.06;100.00;60892.56;5896443;23;20010;-93
2023/06/12 10:58:36;;;;;;;;;;;;;;;;;;;;;
2023/06/12 11:01:03;;;;;;;1.20;1.10;;;;;;;-145.06;100.00;60892.56;5893596;23;20025;-92
2023/06/12 11:03:57;;;;;;;1.70;0.60;;;;;;;-145.06;100.00;60892.56;5869597;23;20011;-92
2023/06/12 11:07:23;;;;;;;0.90;0.68;;;;;;;-145.06;100.00;60892.56;5869588;23;20003;-93
2023/06/12 11:15:41;;;;;;;;;;;;;;;;;;;;;
2023/06/12 11:18:53;;;;;;;;;;;;;;;;;;;;;
2023/06/12 11:21:45;;;;;;;0.68;0.68;;;;;;;-145.06;100.00;60892.56;5871995;23;20007;-93
2023/06/12 11:25:26;;;;;;;0.70;0.70;;;;;;;-145.06;100.00;60892.56;5842451;23;20026;-92
2023/06/12 11:28:19;;;;;;;0.88;0.88;;;;;;;-145.06;100.00;60892.56;5837690;23;20309;-93
2023/06/12 11:31:07;;;;;;;1.30;0.73;;;;;;;-145.06;100.00;60892.56;5839401;23;20007;-91
2023/06/12 11:33:46;;;;;;;0.85;0.57;;;;;;;-145.06;100.00;60892.56;5841013;23;20093;-91
2023/06/12 11:36:25;;;;;;;0.70;0.60;;;;;;;-145.06;100.00;60892.56;5840493;23;20011;-92
2023/06/12 11:39:18;;;;;;;2.75;0.70;;;;;;;-145.06;100.00;60892.56;5840375;23;20006;-92
2023/06/12 11:41:59;;;;;;;1.10;0.80;;;;;;;-145.06;100.00;60892.56;5841024;23;20007;-93
2023/06/12 11:44:41;;;;;;;0.98;0.90;;;;;;;-145.06;100.00;60892.56;5840870;23;20011;-92
2023/06/12 11:47:24;;;;;;;1.02;0.77;;;;;;;-145.06;100.00;60892.56;5861323;23;20002;-93
2023/06/12 11:50:05;;;;;;;0.70;0.70;;;;;;;-145.06;100.00;60892.56;5841363;23;20038;-93
2023/06/12 11:52:47;;;;;;;0.80;0.70;;;;;;;-145.06;100.00;60892.56;5841983;23;20006;-91
2023/06/12 11:55:27;;;;;;;1.77;0.80;;;;;;;-145.06;100.00;60892.56;5842919;23;20537;-93
2023/06/12 11:58:19;;;;;;;;;;;;;;;;;;;;;
2023/06/12 12:01:09;;;;;;;2.25;0.77;;;;;;;-145.06;100.00;60892.56;5872842;23;20434;-94
2023/06/12 12:04:17;;;;;;;;;;;;;;;;;;;;;
2023/06/12 12:10:25;;;;;;;0.82;0.80;;;;;;;31.73;100.00;60892.56;5871427;23;20015;-95
2023/06/12 12:13:04;;;;;;;1.38;0.98;;;;;;;-145.06;100.00;60892.56;5841040;23;20002;-93
2023/06/12 12:20:07;;;;;;;;;;;;;;;;;;;;;
2023/06/12 12:23:07;;;;;;;0.52;0.52;;;;;;;-145.06;100.00;60892.56;5871720;23;20007;-93
2023/06/12 12:25:58;;;;;;;0.60;0.50;;;;;;;-145.06;100.00;60892.56;5861066;23;20324;-93
2023/06/12 12:32:28;;;;;;;0.60;0.60;;;;;;;-145.06;100.00;60892.56;5915452;23;20030;-94
2023/06/12 12:36:01;;;;;;;;;;;;;;;;;;;;;
2023/06/12 12:48:56;;;;;;;0.90;0.70;;;;;;;-145.06;100.00;60892.56;5788135;23;20005;-93
2023/06/12 12:55:04;;;;;;;0.80;0.70;;;;;;;32.37;100.00;60892.56;5897057;23;20573;-92
2023/06/12 12:58:05;;;;;;;0.60;0.57;;;;;;;32.44;100.00;60892.56;5888217;23;20010;-93
2023/06/12 13:07:51;;;;;;;;;;;;;;;;;;;;;
2023/06/12 13:26:10;;;;;;;1.05;0.80;;;;;;;-145.06;100.00;60892.56;5758926;24;20020;-93
2023/06/12 13:48:51;;;;;;;0.80;0.80;;;;;;;-145.06;100.00;60892.56;5907975;23;20040;-92
2023/06/12 13:51:35;;;;;;;2.25;1.08;;;;;;;-145.06;100.00;60892.56;5894210;23;20006;-92
2023/06/12 13:54:14;;;;;;;0.85;0.75;;;;;;;36.67;100.00;60892.56;5926401;23;20009;-93
2023/06/12 13:56:53;;;;;;;1.17;0.82;;;;;;;-145.06;100.00;60892.56;5895447;23;20010;-93
2023/06/12 13:59:34;;;;;;;0.80;0.80;;;;;;;-145.06;100.00;60892.56;5903419;23;20116;-93
2023/06/12 14:02:13;;;;;;;0.68;0.68;;;;;;;-145.06;100.00;60892.56;5861766;23;20019;-94
2023/06/12 14:05:01;;;;;;;0.93;0.68;;;;;;;-145.06;100.00;60892.56;5862182;23;20010;-92
2023/06/12 14:07:40;;;;;;;0.85;0.77;;;;;;;-145.06;100.00;60892.56;5861368;23;20006;-93
2023/06/12 14:10:20;;;;;;;0.80;0.80;;;;;;;41.86;100.00;60892.56;5861060;23;20011;-92
2023/06/12 14:13:11;;;;;;;;;;;;;;;;;;;;;
2023/06/12 14:15:56;;;;;;;1.10;1.00;;;;;;;104.26;100.00;60892.56;5871636;23;20015;-94
2023/06/12 14:18:50;;;;;;;1.13;1.02;;;;;;;-145.06;100.00;60892.56;5861961;23;20003;-94
2023/06/12 14:26:35;;;;;;;1.25;1.00;;;;;;;-145.06;100.00;60892.56;5889557;23;19913;-92
2023/06/12 14:29:16;;;;;;;1.35;0.90;;;;;;;-145.06;100.00;60892.56;5868968;23;20011;-93
2023/06/12 14:32:14;;;;;;;0.70;0.70;;;;;;;-145.06;100.00;60892.56;5868473;23;20010;-93
2023/06/12 14:35:05;;;;;;;0.80;0.73;;;;;;;-145.06;100.00;60892.56;5868733;23;20014;-92
2023/06/12 14:38:08;;;;;;;1.33;0.88;;;;;;;-145.06;100.00;60892.56;5869105;23;20003;-93
2023/06/12 14:41:04;;;;;;;0.85;0.75;;;;;;;-145.06;100.00;60892.56;5868614;23;20442;-93
2023/06/12 14:43:48;;;;;;;1.10;0.70;;;;;;;-145.06;100.00;60892.56;5868935;23;20326;-93
2023/06/12 14:46:27;;;;;;;0.80;0.80;;;;;;;-145.06;100.00;60892.56;5868578;23;20030;-93
2023/06/12 14:49:09;;;;;;;1.05;0.95;;;;;;;32.72;100.00;60892.56;5869154;23;20380;-93
2023/06/12 14:51:57;;;;;;;0.95;0.85;;;;;;;-145.06;100.00;60892.56;5869558;23;20232;-94
2023/06/12 14:54:57;;;;;;;0.80;0.70;;;;;;;-145.06;100.00;60892.56;5869278;23;20006;-93
2023/06/12 14:57:40;;;;;;;0.82;0.80;;;;;;;-145.06;100.00;60892.56;5868128;23;20011;-93
2023/06/12 15:00:40;;;;;;;1.38;0.90;;;;;;;-145.06;100.00;60892.56;5868271;23;20006;-93
2023/06/12 15:03:35;;;;;;;1.08;0.68;;;;;;;-145.06;100.00;60892.56;5868989;23;20002;-92
2023/06/12 15:06:24;;;;;;;1.00;0.90;;;;;;;-145.06;100.00;60892.56;5868026;23;20003;-94
2023/06/12 15:09:09;;;;;;;0.88;0.75;;;;;;;-145.06;100.00;60892.56;5868583;23;20437;-94
2023/06/12 15:12:01;;;;;;;0.98;0.80;;;;;;;-145.06;100.00;60892.56;5868929;23;20426;-93
2023/06/12 15:14:51;;;;;;;1.00;0.90;;;;;;;-145.06;100.00;60892.56;5868694;23;20038;-94
2023/06/12 15:18:21;;;;;;;;;;;;;;;;;;;;;
2023/06/12 15:21:04;;;;;;;0.90;0.60;;;;;;;-145.06;100.00;60892.56;5899461;23;20069;-93
2023/06/12 15:23:58;;;;;;;1.05;0.95;;;;;;;-145.06;100.00;60892.56;5900186;23;20319;-93
2023/06/12 15:27:00;;;;;;;1.30;1.08;;;;;;;-145.06;100.00;60892.56;5875950;23;20315;-91
2023/06/12 15:35:44;;;;;;;0.95;0.85;;;;;;;-145.06;100.00;60892.56;5924159;23;20017;-93
2023/06/12 15:41:50;;;;;;;0.90;0.80;;;;;;;-145.06;100.00;60892.56;5900757;23;20007;-94
2023/06/12 15:44:30;;;;;;;0.80;0.70;;;;;;;104.26;100.00;60892.56;5869147;23;20014;-92
2023/06/12 15:47:41;;;;;;;1.00;0.90;;;;;;;-145.06;100.00;60892.56;5870007;23;20003;-92
2023/06/12 15:54:18;;;;;;;1.10;1.00;;;;;;;-145.06;100.00;60892.56;5870132;23;20002;-93
2023/06/12 15:57:28;;;;;;;1.17;1.00;;;;;;;104.26;100.00;60892.56;5869265;23;20007;-93
2023/06/12 16:00:09;;;;;;;2.40;0.80;;;;;;;-145.06;100.00;60892.56;5869506;23;20010;-93
2023/06/12 16:02:48;;;;;;;1.40;1.00;;;;;;;-145.06;100.00;60892.56;5889864;23;20007;-92
2023/06/12 16:06:27;;;;;;;;;;;;;;;;;;;;;
2023/06/12 16:09:08;;;;;;;1.95;1.35;;;;;;;-145.06;100.00;60892.56;5900450;23;20006;-93
2023/06/12 16:12:02;;;;;;;0.95;0.93;;;;;;;-145.06;100.00;60892.56;5869801;23;20026;-92
2023/06/12 16:14:45;;;;;;;1.13;1.02;;;;;;;-145.06;100.00;60892.56;5890795;23;20006;-93
2023/06/12 16:24:51;;;;;;;0.80;0.80;;;;;;;31.25;100.00;60892.56;5896802;23;20026;-93
2023/06/12 16:27:30;;;;;;;1.10;1.00;;;;;;;-145.06;100.00;60892.56;5890168;23;19998;-94
2023/06/12 16:30:58;;;;;;;1.00;0.90;;;;;;;-145.06;100.00;60892.56;5892802;23;20010;-94
2023/06/12 16:33:37;;;;;;;1.20;1.10;;;;;;;-145.06;100.00;60892.56;5888274;23;20002;-93
2023/06/12 16:36:17;;;;;;;1.30;1.10;;;;;;;31.18;100.00;60892.56;5881642;23;20010;-91
2023/06/12 16:38:56;;;;;;;1.55;1.20;;;;;;;-145.06;100.00;60892.56;5881599;23;20086;-91
2023/06/12 16:41:36;;;;;;;1.00;0.90;;;;;;;-145.06;100.00;60892.56;5892650;23;20014;-90
2023/06/12 16:44:15;;;;;;;1.00;0.90;;;;;;;-145.06;100.00;60892.56;5880962;23;20010;-90
2023/06/12 16:46:55;;;;;;;1.10;1.00;;;;;;;-145.06;100.00;60892.56;5883971;23;20025;-91
2023/06/12 16:49:34;;;;;;;1.35;1.00;;;;;;;-145.06;100.00;60892.56;5883287;23;20003;-90
2023/06/12 16:52:13;;;;;;;1.10;1.00;;;;;;;-145.06;100.00;60892.56;5882846;23;20010;-91
2023/06/12 16:54:53;;;;;;;1.00;0.90;;;;;;;30.98;100.00;60892.56;5883839;23;20315;-90
2023/06/12 16:57:32;;;;;;;1.00;0.90;;;;;;;-145.06;100.00;60892.56;5883692;23;20011;-89
2023/06/12 17:00:12;;;;;;;1.00;0.90;;;;;;;30.93;100.00;60892.56;5882207;23;20006;-90
2023/06/12 17:02:55;;;;;;;1.17;1.08;;;;;;;30.90;100.00;60892.56;5881987;23;20025;-90
2023/06/12 17:05:34;;;;;;;1.25;1.00;;;;;;;-145.06;100.00;60892.56;5884580;23;19998;-90
2023/06/12 17:08:13;;;;;;;0.85;0.80;;;;;;;-145.06;100.00;60892.56;5884073;23;20006;-92
2023/06/12 17:11:09;;;;;;;;;;;;;;;;;;;;;
2023/06/12 17:14:19;;;;;;;1.15;1.05;;;;;;;-145.06;100.00;60892.56;5901800;23;20022;-94
2023/06/12 17:17:39;;;;;;;1.23;1.00;;;;;;;-145.06;100.00;60892.56;5869789;23;20006;-95
2023/06/12 17:20:18;;;;;;;0.90;0.80;;;;;;;-145.06;100.00;60892.56;5869436;23;20319;-94
2023/06/12 17:23:53;;;;;;;1.00;0.88;;;;;;;-145.06;100.00;60892.56;5872141;23;20434;-92
2023/06/12 17:27:02;;;;;;;1.08;0.98;;;;;;;-145.06;100.00;60892.56;5802385;23;20010;-95
2023/06/12 17:29:48;;;;;;;1.75;1.00;;;;;;;-145.06;100.00;60892.56;5899370;23;20006;-95
2023/06/12 17:32:42;;;;;;;1.15;1.05;;;;;;;-145.06;100.00;60892.56;5873399;23;20003;-95
2023/06/12 17:45:34;;;;;;;1.27;1.00;;;;;;;-145.06;100.00;60892.56;5927489;23;20014;-93
2023/06/12 18:07:27;;;;;;;1.25;1.15;;;;;;;-145.06;100.00;60892.56;5933633;23;20002;-94
2023/06/12 19:42:38;;;;;;;1.17;1.08;;;;;;;-145.06;100.00;60892.56;5912655;23;20029;-93
2023/06/12 19:45:20;;;;;;;1.67;1.20;;;;;;;-145.06;100.00;60892.56;5898888;23;20010;-93
2023/06/12 19:48:00;;;;;;;2.50;1.23;;;;;;;-145.06;100.00;60892.56;5896319;23;20006;-95
2023/06/12 19:50:39;;;;;;;1.40;1.30;;;;;;;-145.06;100.00;60892.56;5896867;23;20033;-95
2023/06/12 19:53:19;;;;;;;1.23;1.00;;;;;;;-145.06;100.00;60892.56;5895692;23;20010;-95
2023/06/12 19:55:58;;;;;;;1.85;1.13;;;;;;;-145.06;100.00;60892.56;5896178;23;20038;-94
2023/06/12 19:58:37;;;;;;;2.42;1.42;;;;;;;-145.06;100.00;60892.56;5917752;23;20084;-94
2023/06/12 20:01:16;;;;;;;1.38;1.25;;;;;;;-145.06;100.00;60892.56;5895525;23;20030;-95
2023/06/12 20:03:56;;;;;;;;;;;;;;;-145.06;100.00;60892.56;5896422;23;20010;-96
2023/06/12 20:06:35;;;;;;;1.23;1.13;;;;;;;-145.06;100.00;60892.56;5895736;23;19909;-95
2023/06/12 20:09:17;;;;;;;1.20;1.00;;;;;;;-145.06;100.00;60892.56;5895567;23;20278;-95
2023/06/12 20:11:56;;;;;;;1.10;1.00;;;;;;;-145.06;100.00;60892.56;5896766;23;20605;-95
2023/06/12 20:14:38;;;;;;;1.33;1.20;;;;;;;-145.06;100.00;60892.56;5896997;23;20005;-95
2023/06/12 20:17:21;;;;;;;1.33;1.10;;;;;;;-145.06;100.00;60892.56;5928610;23;20002;-96
2023/06/12 20:20:06;;;;;;;1.20;1.10;;;;;;;-145.06;100.00;60892.56;5896661;23;20026;-95
2023/06/12 20:22:51;;;;;;;1.10;1.00;;;;;;;-145.06;100.00;60892.56;5893482;23;20010;-96
2023/06/12 20:26:02;;;;;;;1.33;1.20;;;;;;;-145.06;100.00;60892.56;5871767;23;20015;-95
2023/06/12 20:28:45;;;;;;;1.15;1.02;;;;;;;-145.06;100.00;60892.56;5851606;23;20011;-95
2023/06/12 20:34:28;;;;;;;1.50;1.27;;;;;;;-145.06;100.00;60892.56;5867907;23;20006;-95
2023/06/12 20:37:23;;;;;;;;;;;;;;;;;;;;;
2023/06/12 20:40:05;;;;;;;1.25;1.08;;;;;;;-145.06;100.00;60892.56;5852994;23;20015;-96
2023/06/12 20:43:07;;;;;;;2.17;1.70;;;;;;;-145.06;100.00;60892.56;5861559;23;20014;-95
2023/06/12 20:45:55;;;;;;;1.33;1.17;;;;;;;-145.06;100.00;60892.56;5865341;23;20015;-94
2023/06/12 20:48:35;;;;;;;2.58;1.20;;;;;;;-145.06;100.00;60892.56;5860102;23;20007;-93
2023/06/12 20:51:14;;;;;;;1.30;1.20;;;;;;;25.82;100.00;60892.56;5861789;23;20031;-94
2023/06/12 20:53:53;;;;;;;3.40;1.25;;;;;;;-145.06;100.00;60892.56;5861465;23;20006;-94
2023/06/12 20:56:32;;;;;;;1.48;1.27;;;;;;;-145.06;100.00;60892.56;5861628;23;20006;-94
2023/06/12 20:59:11;;;;;;;1.35;1.20;;;;;;;-145.06;100.00;60892.56;5855696;23;20011;-94
2023/06/12 21:01:50;;;;;;;1.90;1.33;;;;;;;-145.06;100.00;60892.56;5859085;23;20319;-94
2023/06/12 21:04:29;;;;;;;1.70;1.50;;;;;;;-145.06;100.00;60892.56;5860439;23;20014;-94
2023/06/12 21:07:08;;;;;;;1.83;1.48;;;;;;;-145.06;100.00;60892.56;5859985;23;20006;-95
2023/06/12 21:09:47;;;;;;;1.27;1.17;;;;;;;-145.06;100.00;60892.56;5859731;23;20019;-95
2023/06/12 21:12:26;;;;;;;1.60;1.50;;;;;;;-145.06;100.00;60892.56;5860238;23;20010;-93
2023/06/12 21:15:06;;;;;;;1.73;1.27;;;;;;;-145.06;100.00;60892.56;5859367;23;20003;-94
2023/06/12 21:17:44;;;;;;;1.63;1.40;;;;;;;-145.06;100.00;60892.56;5859967;23;20010;-93
2023/06/12 21:20:23;;;;;;;1.75;1.48;;;;;;;31.47;100.00;60892.56;5858445;23;20517;-95
2023/06/12 21:23:03;;;;;;;2.17;1.50;;;;;;;-145.06;100.00;60892.56;5853334;23;20015;-94
2023/06/12 21:25:42;;;;;;;1.67;1.30;;;;;;;24.52;100.00;60892.56;5854523;23;20094;-95
2023/06/12 21:28:21;;;;;;;1.52;1.42;;;;;;;24.42;100.00;60892.56;5854555;23;20018;-94
2023/06/12 21:31:00;;;;;;;1.70;1.60;;;;;;;-145.06;100.00;60892.56;5854309;23;20011;-95
2023/06/12 21:33:40;;;;;;;1.83;1.65;;;;;;;-145.06;100.00;60892.56;5854208;23;20014;-95
2023/06/12 21:36:19;;;;;;;1.35;1.25;;;;;;;-145.06;100.00;60892.56;5858937;23;20010;-93
2023/06/12 21:38:58;;;;;;;1.70;1.50;;;;;;;-145.06;100.00;60892.56;5859797;23;20003;-94
2023/06/12 21:41:38;;;;;;;1.80;1.60;;;;;;;-145.06;100.00;60892.56;5866548;23;20015;-94
2023/06/12 21:44:17;;;;;;;1.20;1.10;;;;;;;-145.06;100.00;60892.56;5861371;23;20010;-95
2023/06/12 21:46:56;;;;;;;1.40;1.20;;;;;;;-145.06;100.00;60892.56;5867118;23;20010;-93
2023/06/12 21:49:35;;;;;;;1.58;1.27;;;;;;;-145.06;100.00;60892.56;5867338;23;20006;-93
2023/06/12 21:57:14;;;;;;;1.42;1.33;;;;;;;-145.06;100.00;60892.56;5859068;23;20062;-95
2023/06/12 21:59:53;;;;;;;2.17;1.58;;;;;;;-145.06;100.00;60892.56;5888466;23;20701;-93
2023/06/12 22:02:32;;;;;;;1.65;1.40;;;;;;;-145.06;100.00;60892.56;5887862;23;20010;-94
2023/06/12 22:05:11;;;;;;;1.88;1.50;;;;;;;-145.06;100.00;60892.56;5888202;23;20026;-95
2023/06/12 22:07:50;;;;;;;1.90;1.63;;;;;;;-145.06;100.00;60892.56;5888597;23;20070;-95
2023/06/12 22:10:29;;;;;;;1.42;1.33;;;;;;;-145.06;100.00;60892.56;5887857;23;20006;-93
2023/06/12 22:13:08;;;;;;;1.33;1.15;;;;;;;-145.06;100.00;60892.56;5887771;23;20002;-94
2023/06/12 22:15:51;;;;;;;1.70;1.38;;;;;;;-145.06;100.00;60892.56;5887267;23;20010;-94